createdAt,value
2023-03-22T00:02:00.636Z,5.20
2023-03-22T00:08:05.870Z,5.38
2023-03-22T00:14:07.696Z,5.25
2023-03-22T00:20:10.150Z,4.55
2023-03-22T00:26:13.610Z,5.30
2023-03-22T00:32:15.548Z,5.28
2023-03-22T00:38:17.588Z,5.43
2023-03-22T00:44:19.739Z,5.47
2023-03-22T00:50:21.551Z,5.45
2023-03-22T00:56:25.672Z,4.97
2023-03-22T01:02:29.827Z,5.25
2023-03-22T01:08:33.733Z,4.47
2023-03-22T01:14:35.996Z,5.17
2023-03-22T01:20:38.652Z,5.38
2023-03-22T01:26:40.790Z,5.40
2023-03-22T01:32:42.848Z,5.50
2023-03-22T01:38:44.929Z,5.28
2023-03-22T01:45:16.713Z,5.45
2023-03-22T01:51:23.141Z,5.50
2023-03-22T01:57:25.786Z,5.18
2023-03-22T02:04:07.376Z,5.80
2023-03-22T02:10:19.314Z,5.53
2023-03-22T02:16:21.136Z,5.32
2023-03-22T02:22:44.512Z,5.63
2023-03-22T02:29:04.859Z,5.28
2023-03-22T02:35:44.333Z,5.53
2023-03-22T02:42:12.532Z,5.78
2023-03-22T02:48:24.660Z,5.15
2023-03-22T02:54:33.247Z,5.85
2023-03-22T03:00:36.722Z,5.30
2023-03-22T03:06:46.200Z,5.10
2023-03-22T03:12:48.254Z,5.68
2023-03-22T03:18:58.959Z,5.53
2023-03-22T03:25:12.546Z,5.88
2023-03-22T03:31:27.287Z,5.30
2023-03-22T03:37:41.689Z,5.35
2023-03-22T03:43:45.885Z,5.20
2023-03-22T03:49:47.724Z,5.70
2023-03-22T03:55:49.737Z,5.65
2023-03-22T04:01:52.608Z,6.18
2023-03-22T04:07:54.602Z,5.88
2023-03-22T04:13:56.636Z,6.38
2023-03-22T04:19:59.170Z,6.10
2023-03-22T04:26:01.227Z,6.50
2023-03-22T04:32:03.907Z,5.95
2023-03-22T04:38:09.797Z,6.45
2023-03-22T04:44:11.859Z,6.80
2023-03-22T04:50:15.808Z,6.53
2023-03-22T04:56:17.966Z,6.82
2023-03-22T05:02:20.004Z,7.20
2023-03-22T05:08:25.420Z,6.75
2023-03-22T05:14:27.690Z,6.88
2023-03-22T05:20:29.559Z,7.43
2023-03-22T05:26:31.478Z,6.82
2023-03-22T05:32:33.306Z,7.53
2023-03-22T05:38:35.457Z,7.90
2023-03-22T05:44:37.436Z,7.18
2023-03-22T05:50:39.587Z,6.78
2023-03-22T05:56:41.697Z,7.22
2023-03-22T06:02:46.621Z,7.15
2023-03-22T06:08:48.395Z,6.90
2023-03-22T06:14:50.533Z,7.38
2023-03-22T06:20:52.576Z,6.10
2023-03-22T06:26:54.454Z,6.28
2023-03-22T06:33:00.545Z,5.78
2023-03-22T06:39:05.203Z,5.63
2023-03-22T06:45:08.272Z,5.63
2023-03-22T06:51:10.441Z,5.10
2023-03-22T06:57:12.656Z,5.18
2023-03-22T07:03:14.674Z,4.50
2023-03-22T07:09:16.991Z,4.38
2023-03-22T07:15:20.164Z,4.80
2023-03-22T07:21:22.205Z,3.95
2023-03-22T07:27:24.230Z,3.78
2023-03-22T07:33:26.176Z,3.75
2023-03-22T07:39:29.120Z,3.42
2023-03-22T07:45:31.376Z,3.58
2023-03-22T07:51:33.254Z,3.67
2023-03-22T07:57:36.784Z,3.75
2023-03-22T08:03:39.244Z,3.60
2023-03-22T08:09:41.277Z,3.70
2023-03-22T08:15:43.554Z,4.10
2023-03-22T08:21:45.843Z,4.10
2023-03-22T08:27:47.902Z,3.70
2023-03-22T08:33:50.373Z,3.90
2023-03-22T08:39:52.834Z,3.13
2023-03-22T08:45:55.036Z,2.70
2023-03-22T08:51:58.010Z,3.20
2023-03-22T08:58:01.962Z,2.95
2023-03-22T09:04:05.253Z,3.15
2023-03-22T09:10:08.479Z,2.90
2023-03-22T09:16:11.080Z,3.22
2023-03-22T09:22:13.158Z,3.50
2023-03-22T09:28:17.314Z,2.80
2023-03-22T09:34:19.259Z,3.22
2023-03-22T09:40:25.267Z,2.50
2023-03-22T09:46:34.281Z,3.00
2023-03-22T09:52:36.213Z,2.42
2023-03-22T09:59:04.776Z,2.42
2023-03-22T10:05:17.474Z,2.33
2023-03-22T10:11:45.111Z,2.20
2023-03-22T10:17:53.307Z,2.03
2023-03-22T10:24:02.411Z,2.03
2023-03-22T10:30:24.847Z,1.67
2023-03-22T10:36:34.858Z,2.08
2023-03-22T10:42:39.610Z,1.95
2023-03-22T10:48:45.849Z,1.88
2023-03-22T10:54:47.766Z,2.17
2023-03-22T11:00:54.215Z,1.83
2023-03-22T11:06:56.569Z,2.00
2023-03-22T11:13:07.303Z,1.98
2023-03-22T11:19:14.912Z,1.92
2023-03-22T11:25:29.000Z,1.77
2023-03-22T11:31:51.565Z,2.15
2023-03-22T11:37:56.293Z,2.10
2023-03-22T11:44:04.900Z,1.67
2023-03-22T11:50:10.707Z,1.60
2023-03-22T11:56:22.085Z,1.55
2023-03-22T12:02:32.586Z,2.10
2023-03-22T12:08:46.262Z,1.80
2023-03-22T12:14:59.099Z,1.90
2023-03-22T12:21:02.087Z,1.90
2023-03-22T12:27:27.544Z,2.15
2023-03-22T12:34:01.170Z,1.95
2023-03-22T12:40:32.226Z,2.10
2023-03-22T12:46:42.311Z,2.05
2023-03-22T12:52:58.592Z,1.90
2023-03-22T12:59:05.135Z,1.77
2023-03-22T13:05:10.974Z,2.22
2023-03-22T13:11:23.970Z,1.75
2023-03-22T13:17:26.007Z,1.98
2023-03-22T13:23:28.373Z,1.65
2023-03-22T13:29:33.236Z,1.80
2023-03-22T13:36:01.436Z,1.50
2023-03-22T13:42:20.864Z,1.77
2023-03-22T13:48:41.374Z,1.25
2023-03-22T13:54:48.161Z,1.13
2023-03-22T14:00:54.913Z,1.00
2023-03-22T14:07:00.294Z,1.25
2023-03-22T14:13:24.004Z,0.98
2023-03-22T14:19:31.759Z,1.20
